sensor_id;sensor_type;location;lat;lon;timestamp;pressure;altitude;pressure_sealevel;temperature;humidity
19150;BME280;9707;49.158;8.632;2023-08-06T00:00:27;99556.72;;;26.33;41.36
19150;BME280;9707;49.158;8.632;2023-08-06T00:02:52;99561.53;;;26.31;41.67
19150;BME280;9707;49.158;8.632;2023-08-06T00:05:17;99556.06;;;26.31;41.55
19150;BME280;9707;49.158;8.632;2023-08-06T00:07:46;99567.00;;;26.31;41.35
19150;BME280;9707;49.158;8.632;2023-08-06T00:10:11;99568.84;;;26.31;41.88
19150;BME280;9707;49.158;8.632;2023-08-06T00:12:37;99554.56;;;26.29;41.89
19150;BME280;9707;49.158;8.632;2023-08-06T00:15:02;99549.91;;;26.29;41.74
19150;BME280;9707;49.158;8.632;2023-08-06T00:17:28;99556.25;;;26.30;41.52
19150;BME280;9707;49.158;8.632;2023-08-06T00:19:53;99552.81;;;26.28;41.98
19150;BME280;9707;49.158;8.632;2023-08-06T00:22:18;99549.44;;;26.26;42.08
19150;BME280;9707;49.158;8.632;2023-08-06T00:24:44;99553.03;;;26.26;41.96
19150;BME280;9707;49.158;8.632;2023-08-06T00:27:09;99550.28;;;26.26;42.00
19150;BME280;9707;49.158;8.632;2023-08-06T00:29:34;99543.09;;;26.25;41.76
19150;BME280;9707;49.158;8.632;2023-08-06T00:32:00;99538.69;;;26.24;41.90
19150;BME280;9707;49.158;8.632;2023-08-06T00:34:25;99541.41;;;26.24;41.48
19150;BME280;9707;49.158;8.632;2023-08-06T00:36:50;99527.75;;;26.24;41.86
19150;BME280;9707;49.158;8.632;2023-08-06T00:39:15;99517.88;;;26.23;41.69
19150;BME280;9707;49.158;8.632;2023-08-06T00:41:43;99520.78;;;26.22;41.50
19150;BME280;9707;49.158;8.632;2023-08-06T00:44:09;99518.22;;;26.20;41.80
19150;BME280;9707;49.158;8.632;2023-08-06T00:46:34;99511.06;;;26.19;41.54
19150;BME280;9707;49.158;8.632;2023-08-06T00:48:59;99512.97;;;26.19;41.79
19150;BME280;9707;49.158;8.632;2023-08-06T00:51:25;99515.88;;;26.17;41.45
19150;BME280;9707;49.158;8.632;2023-08-06T00:53:52;99510.59;;;26.16;41.57
19150;BME280;9707;49.158;8.632;2023-08-06T00:56:18;99499.84;;;26.14;42.04
19150;BME280;9707;49.158;8.632;2023-08-06T00:58:45;99502.75;;;26.13;42.02
19150;BME280;9707;49.158;8.632;2023-08-06T01:01:10;99510.94;;;26.13;42.06
19150;BME280;9707;49.158;8.632;2023-08-06T01:03:36;99511.97;;;26.12;41.75
19150;BME280;9707;49.158;8.632;2023-08-06T01:06:01;99506.50;;;26.12;42.20
19150;BME280;9707;49.158;8.632;2023-08-06T01:08:49;99506.50;;;26.12;42.21
19150;BME280;9707;49.158;8.632;2023-08-06T01:13:48;99495.97;;;26.09;41.96
19150;BME280;9707;49.158;8.632;2023-08-06T01:16:17;99493.22;;;26.09;42.20
19150;BME280;9707;49.158;8.632;2023-08-06T01:18:43;99486.03;;;26.08;41.84
19150;BME280;9707;49.158;8.632;2023-08-06T01:21:12;99481.63;;;26.07;42.06
19150;BME280;9707;49.158;8.632;2023-08-06T01:23:38;99476.84;;;26.09;42.35
19150;BME280;9707;49.158;8.632;2023-08-06T01:26:24;99468.84;;;26.07;41.84
19150;BME280;9707;49.158;8.632;2023-08-06T01:28:59;99469.00;;;26.06;42.18
19150;BME280;9707;49.158;8.632;2023-08-06T01:31:31;99476.34;;;26.05;42.21
19150;BME280;9707;49.158;8.632;2023-08-06T01:33:58;99471.91;;;26.04;41.96
19150;BME280;9707;49.158;8.632;2023-08-06T01:36:24;99464.59;;;26.05;41.70
19150;BME280;9707;49.158;8.632;2023-08-06T01:38:52;99470.88;;;26.05;42.16
19150;BME280;9707;49.158;8.632;2023-08-06T01:41:18;99471.75;;;26.06;41.82
19150;BME280;9707;49.158;8.632;2023-08-06T01:43:43;99464.59;;;26.05;41.78
19150;BME280;9707;49.158;8.632;2023-08-06T01:46:08;99466.28;;;26.06;41.60
19150;BME280;9707;49.158;8.632;2023-08-06T01:48:34;99463.56;;;26.06;41.77
19150;BME280;9707;49.158;8.632;2023-08-06T01:50:59;99449.03;;;26.05;41.96
19150;BME280;9707;49.158;8.632;2023-08-06T01:53:24;99458.09;;;26.06;41.83
19150;BME280;9707;49.158;8.632;2023-08-06T01:55:50;99450.25;;;26.03;41.64
19150;BME280;9707;49.158;8.632;2023-08-06T01:58:15;99457.44;;;26.04;41.26
19150;BME280;9707;49.158;8.632;2023-08-06T02:00:40;99466.47;;;26.04;41.67
19150;BME280;9707;49.158;8.632;2023-08-06T02:03:06;99461.16;;;26.03;41.53
19150;BME280;9707;49.158;8.632;2023-08-06T02:05:31;99445.84;;;26.02;41.56
19150;BME280;9707;49.158;8.632;2023-08-06T02:07:56;99449.59;;;26.01;41.55
19150;BME280;9707;49.158;8.632;2023-08-06T02:10:22;99443.47;;;25.99;41.91
19150;BME280;9707;49.158;8.632;2023-08-06T02:12:47;99446.22;;;25.99;41.72
19150;BME280;9707;49.158;8.632;2023-08-06T02:15:12;99447.03;;;25.99;41.31
19150;BME280;9707;49.158;8.632;2023-08-06T02:17:38;99437.16;;;25.98;41.07
19150;BME280;9707;49.158;8.632;2023-08-06T02:20:03;99439.88;;;25.98;41.16
19150;BME280;9707;49.158;8.632;2023-08-06T02:22:29;99441.75;;;25.98;40.96
19150;BME280;9707;49.158;8.632;2023-08-06T02:24:54;99434.59;;;25.97;41.12
19150;BME280;9707;49.158;8.632;2023-08-06T02:27:19;99425.38;;;25.98;40.47
19150;BME280;9707;49.158;8.632;2023-08-06T02:29:44;99429.16;;;25.97;40.70
19150;BME280;9707;49.158;8.632;2023-08-06T02:32:10;99430.19;;;25.96;40.22
19150;BME280;9707;49.158;8.632;2023-08-06T02:34:35;99437.50;;;25.95;40.43
19150;BME280;9707;49.158;8.632;2023-08-06T02:37:00;99431.38;;;25.93;40.30
19150;BME280;9707;49.158;8.632;2023-08-06T02:39:25;99424.06;;;25.94;40.42
19150;BME280;9707;49.158;8.632;2023-08-06T02:41:51;99423.22;;;25.93;40.38
19150;BME280;9707;49.158;8.632;2023-08-06T02:44:16;99416.19;;;25.91;40.41
19150;BME280;9707;49.158;8.632;2023-08-06T02:46:41;99423.53;;;25.90;40.60
19150;BME280;9707;49.158;8.632;2023-08-06T02:49:06;99421.66;;;25.91;40.59
19150;BME280;9707;49.158;8.632;2023-08-06T02:51:32;99427.28;;;25.89;40.53
19150;BME280;9707;49.158;8.632;2023-08-06T02:53:57;99418.25;;;25.89;40.78
19150;BME280;9707;49.158;8.632;2023-08-06T02:56:22;99421.00;;;25.89;40.86
19150;BME280;9707;49.158;8.632;2023-08-06T02:58:47;99424.72;;;25.88;41.07
19150;BME280;9707;49.158;8.632;2023-08-06T03:01:13;99425.94;;;25.85;40.84
19150;BME280;9707;49.158;8.632;2023-08-06T03:03:39;99428.66;;;25.85;41.16
19150;BME280;9707;49.158;8.632;2023-08-06T03:06:04;99422.38;;;25.85;41.07
19150;BME280;9707;49.158;8.632;2023-08-06T03:08:30;99431.38;;;25.85;40.73
19150;BME280;9707;49.158;8.632;2023-08-06T03:10:55;99433.28;;;25.85;40.79
19150;BME280;9707;49.158;8.632;2023-08-06T03:13:20;99427.84;;;25.85;40.79
19150;BME280;9707;49.158;8.632;2023-08-06T03:15:56;99434.31;;;25.84;40.87
19150;BME280;9707;49.158;8.632;2023-08-06T03:18:22;99431.75;;;25.82;40.38
19150;BME280;9707;49.158;8.632;2023-08-06T03:20:47;99431.75;;;25.82;40.13
19150;BME280;9707;49.158;8.632;2023-08-06T03:23:12;99445.59;;;25.81;40.13
19150;BME280;9707;49.158;8.632;2023-08-06T03:25:38;99438.44;;;25.80;40.33
19150;BME280;9707;49.158;8.632;2023-08-06T03:28:03;99439.47;;;25.79;40.11
19150;BME280;9707;49.158;8.632;2023-08-06T03:30:28;99435.00;;;25.78;40.25
19150;BME280;9707;49.158;8.632;2023-08-06T03:32:54;99437.09;;;25.76;40.04
19150;BME280;9707;49.158;8.632;2023-08-06T03:35:19;99440.84;;;25.75;40.55
19150;BME280;9707;49.158;8.632;2023-08-06T03:37:44;99446.31;;;25.75;40.04
19150;BME280;9707;49.158;8.632;2023-08-06T03:40:10;99447.34;;;25.74;40.61
19150;BME280;9707;49.158;8.632;2023-08-06T03:42:35;99449.19;;;25.73;40.33
19150;BME280;9707;49.158;8.632;2023-08-06T03:45:00;99445.81;;;25.71;40.33
19150;BME280;9707;49.158;8.632;2023-08-06T03:47:26;99450.41;;;25.71;40.28
19150;BME280;9707;49.158;8.632;2023-08-06T03:49:51;99447.84;;;25.69;40.27
19150;BME280;9707;49.158;8.632;2023-08-06T03:52:16;99455.38;;;25.67;40.06
19150;BME280;9707;49.158;8.632;2023-08-06T03:54:41;99450.75;;;25.68;39.94
19150;BME280;9707;49.158;8.632;2023-08-06T03:57:08;99449.06;;;25.67;39.70
19150;BME280;9707;49.158;8.632;2023-08-06T03:59:33;99452.81;;;25.66;39.83
19150;BME280;9707;49.158;8.632;2023-08-06T04:01:59;99440.22;;;25.65;40.04
19150;BME280;9707;49.158;8.632;2023-08-06T04:04:24;99451.13;;;25.65;40.32
19150;BME280;9707;49.158;8.632;2023-08-06T04:06:49;99453.16;;;25.63;40.29
19150;BME280;9707;49.158;8.632;2023-08-06T04:09:15;99458.59;;;25.63;39.96
19150;BME280;9707;49.158;8.632;2023-08-06T04:11:40;99445.19;;;25.61;40.01
19150;BME280;9707;49.158;8.632;2023-08-06T04:14:05;99440.53;;;25.62;39.71
19150;BME280;9707;49.158;8.632;2023-08-06T04:16:30;99443.28;;;25.62;40.21
19150;BME280;9707;49.158;8.632;2023-08-06T04:18:56;99431.72;;;25.60;40.12
19150;BME280;9707;49.158;8.632;2023-08-06T04:21:21;99436.28;;;25.59;40.15
19150;BME280;9707;49.158;8.632;2023-08-06T04:23:49;99443.66;;;25.59;39.82
19150;BME280;9707;49.158;8.632;2023-08-06T04:26:15;99439.03;;;25.59;39.99
19150;BME280;9707;49.158;8.632;2023-08-06T04:28:40;99439.22;;;25.58;40.15
19150;BME280;9707;49.158;8.632;2023-08-06T04:31:05;99448.41;;;25.57;40.08
19150;BME280;9707;49.158;8.632;2023-08-06T04:33:30;99438.38;;;25.57;40.14
19150;BME280;9707;49.158;8.632;2023-08-06T04:35:56;99436.66;;;25.56;39.90
19150;BME280;9707;49.158;8.632;2023-08-06T04:38:25;99436.66;;;25.56;39.86
19150;BME280;9707;49.158;8.632;2023-08-06T04:40:50;99439.41;;;25.56;40.13
19150;BME280;9707;49.158;8.632;2023-08-06T04:43:15;99450.47;;;25.55;39.83
19150;BME280;9707;49.158;8.632;2023-08-06T04:45:48;99431.38;;;25.55;39.79
19150;BME280;9707;49.158;8.632;2023-08-06T04:48:14;99435.16;;;25.54;39.88
19150;BME280;9707;49.158;8.632;2023-08-06T04:50:43;99444.38;;;25.53;40.06
19150;BME280;9707;49.158;8.632;2023-08-06T04:53:09;99442.47;;;25.53;39.80
19150;BME280;9707;49.158;8.632;2023-08-06T04:55:34;99442.47;;;25.53;40.20
19150;BME280;9707;49.158;8.632;2023-08-06T04:57:59;99448.09;;;25.52;40.41
19150;BME280;9707;49.158;8.632;2023-08-06T05:00:24;99441.63;;;25.53;40.69
19150;BME280;9707;49.158;8.632;2023-08-06T05:02:50;99445.34;;;25.52;40.71
19150;BME280;9707;49.158;8.632;2023-08-06T05:05:15;99439.91;;;25.52;40.36
19150;BME280;9707;49.158;8.632;2023-08-06T05:07:40;99447.09;;;25.53;40.07
19150;BME280;9707;49.158;8.632;2023-08-06T05:10:06;99440.13;;;25.50;39.95
19150;BME280;9707;49.158;8.632;2023-08-06T05:12:31;99437.19;;;25.52;40.52
19150;BME280;9707;49.158;8.632;2023-08-06T05:14:56;99441.81;;;25.51;39.93
19150;BME280;9707;49.158;8.632;2023-08-06T05:17:21;99444.53;;;25.51;40.07
19150;BME280;9707;49.158;8.632;2023-08-06T05:19:48;99442.63;;;25.52;40.15
19150;BME280;9707;49.158;8.632;2023-08-06T05:22:13;99447.44;;;25.50;40.44
19150;BME280;9707;49.158;8.632;2023-08-06T05:24:38;99448.28;;;25.50;40.40
19150;BME280;9707;49.158;8.632;2023-08-06T05:27:04;99447.44;;;25.50;40.74
19150;BME280;9707;49.158;8.632;2023-08-06T05:29:29;99449.13;;;25.51;40.33
19150;BME280;9707;49.158;8.632;2023-08-06T05:31:55;99441.97;;;25.50;40.64
19150;BME280;9707;49.158;8.632;2023-08-06T05:34:20;99440.13;;;25.50;40.26
19150;BME280;9707;49.158;8.632;2023-08-06T05:36:45;99442.84;;;25.50;40.84
19150;BME280;9707;49.158;8.632;2023-08-06T05:39:10;99440.28;;;25.49;41.10
19150;BME280;9707;49.158;8.632;2023-08-06T05:41:36;99441.97;;;25.50;40.42
19150;BME280;9707;49.158;8.632;2023-08-06T05:44:01;99448.47;;;25.49;40.35
19150;BME280;9707;49.158;8.632;2023-08-06T05:46:26;99444.03;;;25.48;40.98
19150;BME280;9707;49.158;8.632;2023-08-06T05:48:51;99446.94;;;25.46;40.67
19150;BME280;9707;49.158;8.632;2023-08-06T05:51:17;99446.06;;;25.46;40.68
19150;BME280;9707;49.158;8.632;2023-08-06T05:53:42;99446.06;;;25.46;40.94
19150;BME280;9707;49.158;8.632;2023-08-06T05:56:08;99452.56;;;25.45;40.94
19150;BME280;9707;49.158;8.632;2023-08-06T05:58:33;99460.75;;;25.45;40.87
19150;BME280;9707;49.158;8.632;2023-08-06T06:01:01;99458.00;;;25.45;41.08
19150;BME280;9707;49.158;8.632;2023-08-06T06:03:27;99450.88;;;25.44;40.98
19150;BME280;9707;49.158;8.632;2023-08-06T06:05:52;99460.91;;;25.43;40.97
19150;BME280;9707;49.158;8.632;2023-08-06T06:08:17;99457.34;;;25.43;41.33
19150;BME280;9707;49.158;8.632;2023-08-06T06:10:42;99449.16;;;25.43;41.46
19150;BME280;9707;49.158;8.632;2023-08-06T06:13:07;99449.34;;;25.41;41.38
19150;BME280;9707;49.158;8.632;2023-08-06T06:15:33;99450.16;;;25.42;41.77
19150;BME280;9707;49.158;8.632;2023-08-06T06:17:58;99440.28;;;25.41;41.52
19150;BME280;9707;49.158;8.632;2023-08-06T06:20:23;99452.91;;;25.42;41.59
19150;BME280;9707;49.158;8.632;2023-08-06T06:22:49;99453.75;;;25.42;41.54
19150;BME280;9707;49.158;8.632;2023-08-06T06:25:14;99451.91;;;25.43;42.03
19150;BME280;9707;49.158;8.632;2023-08-06T06:27:39;99458.19;;;25.43;41.88
19150;BME280;9707;49.158;8.632;2023-08-06T06:30:05;99470.13;;;25.42;41.51
19150;BME280;9707;49.158;8.632;2023-08-06T06:32:31;99467.22;;;25.44;41.54
19150;BME280;9707;49.158;8.632;2023-08-06T06:34:56;99476.44;;;25.43;41.48
19150;BME280;9707;49.158;8.632;2023-08-06T06:37:21;99478.13;;;25.44;41.86
19150;BME280;9707;49.158;8.632;2023-08-06T06:39:46;99475.41;;;25.44;41.48
19150;BME280;9707;49.158;8.632;2023-08-06T06:42:12;99489.03;;;25.44;41.82
19150;BME280;9707;49.158;8.632;2023-08-06T06:44:37;99485.44;;;25.43;41.58
19150;BME280;9707;49.158;8.632;2023-08-06T06:47:03;99482.88;;;25.42;41.65
19150;BME280;9707;49.158;8.632;2023-08-06T06:49:28;99483.75;;;25.42;41.26
19150;BME280;9707;49.158;8.632;2023-08-06T06:51:53;99473.00;;;25.41;41.52
19150;BME280;9707;49.158;8.632;2023-08-06T06:54:19;99474.06;;;25.40;41.37
19150;BME280;9707;49.158;8.632;2023-08-06T06:56:44;99471.31;;;25.40;41.54
19150;BME280;9707;49.158;8.632;2023-08-06T06:59:09;99484.94;;;25.40;41.92
19150;BME280;9707;49.158;8.632;2023-08-06T07:01:34;99485.81;;;25.40;41.69
19150;BME280;9707;49.158;8.632;2023-08-06T07:04:00;99483.91;;;25.41;41.53
19150;BME280;9707;49.158;8.632;2023-08-06T07:06:29;99482.88;;;25.42;41.60
19150;BME280;9707;49.158;8.632;2023-08-06T07:08:55;99480.38;;;25.40;41.74
19150;BME280;9707;49.158;8.632;2023-08-06T07:11:20;99474.91;;;25.40;41.42
19150;BME280;9707;49.158;8.632;2023-08-06T07:13:45;99483.25;;;25.39;41.37
19150;BME280;9707;49.158;8.632;2023-08-06T07:16:10;99477.81;;;25.39;41.36
19150;BME280;9707;49.158;8.632;2023-08-06T07:18:36;99488.72;;;25.39;41.20
19150;BME280;9707;49.158;8.632;2023-08-06T07:21:01;99487.84;;;25.38;41.46
19150;BME280;9707;49.158;8.632;2023-08-06T07:23:26;99478.84;;;25.38;41.90
19150;BME280;9707;49.158;8.632;2023-08-06T07:25:52;99490.75;;;25.37;41.50
19150;BME280;9707;49.158;8.632;2023-08-06T07:28:17;99490.75;;;25.37;41.59
19150;BME280;9707;49.158;8.632;2023-08-06T07:30:43;99485.28;;;25.37;41.45
19150;BME280;9707;49.158;8.632;2023-08-06T07:33:09;99490.94;;;25.35;41.65
19150;BME280;9707;49.158;8.632;2023-08-06T07:35:35;99487.03;;;25.38;42.09
19150;BME280;9707;49.158;8.632;2023-08-06T07:38:01;99487.03;;;25.38;41.67
19150;BME280;9707;49.158;8.632;2023-08-06T07:40:27;99487.03;;;25.38;41.62
19150;BME280;9707;49.158;8.632;2023-08-06T07:42:53;99487.84;;;25.38;41.92
19150;BME280;9707;49.158;8.632;2023-08-06T07:45:18;99491.44;;;25.39;42.03
19150;BME280;9707;49.158;8.632;2023-08-06T07:47:43;99487.69;;;25.40;41.94
19150;BME280;9707;49.158;8.632;2023-08-06T07:50:09;99492.09;;;25.41;41.47
19150;BME280;9707;49.158;8.632;2023-08-06T07:52:35;99490.25;;;25.41;41.54
19150;BME280;9707;49.158;8.632;2023-08-06T07:55:00;99482.06;;;25.41;41.83
19150;BME280;9707;49.158;8.632;2023-08-06T07:57:27;99483.75;;;25.42;42.05
19150;BME280;9707;49.158;8.632;2023-08-06T07:59:52;99490.06;;;25.43;41.84
19150;BME280;9707;49.158;8.632;2023-08-06T08:02:19;99493.63;;;25.43;42.20
19150;BME280;9707;49.158;8.632;2023-08-06T08:04:44;99499.94;;;25.44;41.95
19150;BME280;9707;49.158;8.632;2023-08-06T08:07:12;99490.06;;;25.43;41.72
19150;BME280;9707;49.158;8.632;2023-08-06T08:09:37;99480.16;;;25.42;41.96
19150;BME280;9707;49.158;8.632;2023-08-06T08:12:03;99493.78;;;25.42;42.32
19150;BME280;9707;49.158;8.632;2023-08-06T08:14:28;99483.75;;;25.42;42.31
19150;BME280;9707;49.158;8.632;2023-08-06T08:16:54;99490.06;;;25.43;42.06
19150;BME280;9707;49.158;8.632;2023-08-06T08:19:19;99485.44;;;25.43;41.81
19150;BME280;9707;49.158;8.632;2023-08-06T08:21:45;99479.16;;;25.43;41.98
19150;BME280;9707;49.158;8.632;2023-08-06T08:24:10;99485.44;;;25.43;41.76
19150;BME280;9707;49.158;8.632;2023-08-06T08:26:35;99481.88;;;25.43;42.08
19150;BME280;9707;49.158;8.632;2023-08-06T08:29:00;99484.41;;;25.44;42.38
19150;BME280;9707;49.158;8.632;2023-08-06T08:31:26;99477.97;;;25.45;41.78
19150;BME280;9707;49.158;8.632;2023-08-06T08:33:51;99475.91;;;25.47;42.50
19150;BME280;9707;49.158;8.632;2023-08-06T08:36:16;99478.47;;;25.49;42.48
19150;BME280;9707;49.158;8.632;2023-08-06T08:38:42;99478.28;;;25.50;42.79
19150;BME280;9707;49.158;8.632;2023-08-06T08:41:09;99476.38;;;25.51;42.53
19150;BME280;9707;49.158;8.632;2023-08-06T08:43:35;99485.28;;;25.53;42.20
19150;BME280;9707;49.158;8.632;2023-08-06T08:46:01;99477.09;;;25.53;42.57
19150;BME280;9707;49.158;8.632;2023-08-06T08:48:29;99479.81;;;25.53;42.36
19150;BME280;9707;49.158;8.632;2023-08-06T08:50:55;99470.59;;;25.54;42.44
19150;BME280;9707;49.158;8.632;2023-08-06T08:53:21;99470.59;;;25.54;42.61
19150;BME280;9707;49.158;8.632;2023-08-06T08:55:48;99476.06;;;25.54;42.31
19150;BME280;9707;49.158;8.632;2023-08-06T08:58:14;99476.72;;;25.56;42.14
19150;BME280;9707;49.158;8.632;2023-08-06T09:00:42;99474.00;;;25.56;42.29
19150;BME280;9707;49.158;8.632;2023-08-06T09:03:07;99470.44;;;25.55;42.80
19150;BME280;9707;49.158;8.632;2023-08-06T09:05:33;99464.78;;;25.57;42.85
19150;BME280;9707;49.158;8.632;2023-08-06T09:08:05;99465.47;;;25.59;42.75
19150;BME280;9707;49.158;8.632;2023-08-06T09:10:30;99468.19;;;25.59;43.25
19150;BME280;9707;49.158;8.632;2023-08-06T09:12:57;99473.47;;;25.60;43.54
19150;BME280;9707;49.158;8.632;2023-08-06T09:15:26;99479.59;;;25.62;43.03
19150;BME280;9707;49.158;8.632;2023-08-06T09:17:53;99475.84;;;25.63;43.25
19150;BME280;9707;49.158;8.632;2023-08-06T09:20:18;99471.25;;;25.64;43.72
19150;BME280;9707;49.158;8.632;2023-08-06T09:22:43;99470.88;;;25.67;43.23
19150;BME280;9707;49.158;8.632;2023-08-06T09:25:10;99468.84;;;25.69;43.11
19150;BME280;9707;49.158;8.632;2023-08-06T09:27:37;99468.84;;;25.69;43.22
19150;BME280;9707;49.158;8.632;2023-08-06T09:30:03;99471.34;;;25.70;43.80
19150;BME280;9707;49.158;8.632;2023-08-06T09:32:48;99488.41;;;25.72;43.59
19150;BME280;9707;49.158;8.632;2023-08-06T09:35:17;99476.66;;;25.72;43.30
19150;BME280;9707;49.158;8.632;2023-08-06T09:37:43;99486.53;;;25.73;43.11
19150;BME280;9707;49.158;8.632;2023-08-06T09:40:28;99493.72;;;25.74;42.73
19150;BME280;9707;49.158;8.632;2023-08-06T09:42:53;99501.88;;;25.74;42.78
19150;BME280;9707;49.158;8.632;2023-08-06T09:45:19;99493.72;;;25.74;42.98
19150;BME280;9707;49.158;8.632;2023-08-06T09:47:44;99486.34;;;25.74;42.92
19150;BME280;9707;49.158;8.632;2023-08-06T09:50:19;99486.19;;;25.76;42.49
19150;BME280;9707;49.158;8.632;2023-08-06T09:52:46;99482.41;;;25.77;42.63
19150;BME280;9707;49.158;8.632;2023-08-06T09:55:12;99491.63;;;25.76;42.53
19150;BME280;9707;49.158;8.632;2023-08-06T09:57:40;99483.47;;;25.76;42.73
19150;BME280;9707;49.158;8.632;2023-08-06T10:00:06;99490.59;;;25.77;42.60
19150;BME280;9707;49.158;8.632;2023-08-06T10:02:34;99490.59;;;25.77;42.77
19150;BME280;9707;49.158;8.632;2023-08-06T10:05:00;99498.78;;;25.77;42.82
19150;BME280;9707;49.158;8.632;2023-08-06T10:07:26;99503.22;;;25.78;43.04
19150;BME280;9707;49.158;8.632;2023-08-06T10:09:52;99491.63;;;25.76;42.37
19150;BME280;9707;49.158;8.632;2023-08-06T10:12:18;99504.25;;;25.77;42.57
19150;BME280;9707;49.158;8.632;2023-08-06T10:14:45;99510.72;;;25.76;42.31
19150;BME280;9707;49.158;8.632;2023-08-06T10:17:12;99501.53;;;25.77;42.32
19150;BME280;9707;49.158;8.632;2023-08-06T10:19:37;99506.97;;;25.77;42.30
19150;BME280;9707;49.158;8.632;2023-08-06T10:22:12;99515.31;;;25.75;42.32
19150;BME280;9707;49.158;8.632;2023-08-06T10:27:29;99506.31;;;25.75;42.59
19150;BME280;9707;49.158;8.632;2023-08-06T10:32:53;99519.25;;;25.73;41.52
19150;BME280;9707;49.158;8.632;2023-08-06T10:35:28;99516.91;;;25.70;41.25
19150;BME280;9707;49.158;8.632;2023-08-06T10:37:58;99533.28;;;25.70;41.60
19150;BME280;9707;49.158;8.632;2023-08-06T10:40:23;99535.31;;;25.68;41.48
19150;BME280;9707;49.158;8.632;2023-08-06T10:42:49;99532.78;;;25.66;41.45
19150;BME280;9707;49.158;8.632;2023-08-06T10:45:16;99540.09;;;25.66;41.66
19150;BME280;9707;49.158;8.632;2023-08-06T10:47:42;99541.78;;;25.67;41.90
19150;BME280;9707;49.158;8.632;2023-08-06T10:50:14;99548.28;;;25.66;41.58
19150;BME280;9707;49.158;8.632;2023-08-06T10:52:42;99550.16;;;25.65;41.59
19150;BME280;9707;49.158;8.632;2023-08-06T10:55:08;99547.41;;;25.65;41.79
19150;BME280;9707;49.158;8.632;2023-08-06T10:57:34;99549.31;;;25.65;41.97
19150;BME280;9707;49.158;8.632;2023-08-06T10:59:59;99549.31;;;25.65;41.64
19150;BME280;9707;49.158;8.632;2023-08-06T11:02:25;99551.88;;;25.66;41.88
19150;BME280;9707;49.158;8.632;2023-08-06T11:04:50;99563.63;;;25.67;41.67
19150;BME280;9707;49.158;8.632;2023-08-06T11:07:16;99567.38;;;25.66;41.46
19150;BME280;9707;49.158;8.632;2023-08-06T11:09:42;99569.44;;;25.64;41.32
19150;BME280;9707;49.158;8.632;2023-08-06T11:12:10;99572.31;;;25.62;41.72
19150;BME280;9707;49.158;8.632;2023-08-06T11:14:35;99578.81;;;25.61;41.63
19150;BME280;9707;49.158;8.632;2023-08-06T11:17:01;99572.50;;;25.61;41.56
19150;BME280;9707;49.158;8.632;2023-08-06T11:19:26;99577.28;;;25.59;41.49
19150;BME280;9707;49.158;8.632;2023-08-06T11:21:52;99582.03;;;25.57;41.76
19150;BME280;9707;49.158;8.632;2023-08-06T11:24:20;99583.06;;;25.56;41.70
19150;BME280;9707;49.158;8.632;2023-08-06T11:26:45;99590.59;;;25.54;41.50
19150;BME280;9707;49.158;8.632;2023-08-06T11:29:10;99598.06;;;25.52;41.32
19150;BME280;9707;49.158;8.632;2023-08-06T11:31:36;99603.53;;;25.52;41.76
19150;BME280;9707;49.158;8.632;2023-08-06T11:34:02;99601.84;;;25.51;41.47
19150;BME280;9707;49.158;8.632;2023-08-06T11:36:31;99606.44;;;25.50;41.49
19150;BME280;9707;49.158;8.632;2023-08-06T11:38:58;99608.47;;;25.48;41.85
19150;BME280;9707;49.158;8.632;2023-08-06T11:41:23;99621.28;;;25.48;41.61
19150;BME280;9707;49.158;8.632;2023-08-06T11:43:49;99615.84;;;25.48;41.69
19150;BME280;9707;49.158;8.632;2023-08-06T11:46:14;99626.91;;;25.46;41.81
19150;BME280;9707;49.158;8.632;2023-08-06T11:48:55;99625.00;;;25.47;41.49
19150;BME280;9707;49.158;8.632;2023-08-06T11:51:27;99624.34;;;25.45;41.60
19150;BME280;9707;49.158;8.632;2023-08-06T11:53:56;99632.53;;;25.45;41.81
19150;BME280;9707;49.158;8.632;2023-08-06T11:56:22;99644.47;;;25.44;41.77
19150;BME280;9707;49.158;8.632;2023-08-06T11:58:47;99642.75;;;25.43;41.54
19150;BME280;9707;49.158;8.632;2023-08-06T12:01:13;99649.03;;;25.43;41.69
19150;BME280;9707;49.158;8.632;2023-08-06T12:03:39;99653.66;;;25.43;41.85
19150;BME280;9707;49.158;8.632;2023-08-06T12:06:05;99658.41;;;25.41;41.65
19150;BME280;9707;49.158;8.632;2023-08-06T12:08:30;99666.59;;;25.41;41.35
19150;BME280;9707;49.158;8.632;2023-08-06T12:10:55;99671.38;;;25.39;41.69
19150;BME280;9707;49.158;8.632;2023-08-06T12:13:21;99674.94;;;25.39;41.59
19150;BME280;9707;49.158;8.632;2023-08-06T12:15:46;99670.34;;;25.40;41.27
19150;BME280;9707;49.158;8.632;2023-08-06T12:18:11;99676.84;;;25.39;41.70
19150;BME280;9707;49.158;8.632;2023-08-06T12:20:37;99668.66;;;25.39;41.72
19150;BME280;9707;49.158;8.632;2023-08-06T12:23:03;99676.84;;;25.39;41.95
19150;BME280;9707;49.158;8.632;2023-08-06T12:25:29;99680.41;;;25.39;42.02
19150;BME280;9707;49.158;8.632;2023-08-06T12:27:54;99681.44;;;25.38;41.83
19150;BME280;9707;49.158;8.632;2023-08-06T12:30:19;99682.28;;;25.39;41.43
19150;BME280;9707;49.158;8.632;2023-08-06T12:32:44;99677.88;;;25.38;41.00
19150;BME280;9707;49.158;8.632;2023-08-06T12:35:10;99694.22;;;25.38;41.21
19150;BME280;9707;49.158;8.632;2023-08-06T12:37:36;99682.63;;;25.36;40.68
19150;BME280;9707;49.158;8.632;2023-08-06T12:40:03;99695.59;;;25.34;40.61
19150;BME280;9707;49.158;8.632;2023-08-06T12:42:29;99683.97;;;25.32;40.78
19150;BME280;9707;49.158;8.632;2023-08-06T12:44:54;99686.91;;;25.30;40.29
19150;BME280;9707;49.158;8.632;2023-08-06T12:47:19;99690.63;;;25.29;40.13
19150;BME280;9707;49.158;8.632;2023-08-06T12:49:45;99697.97;;;25.29;40.72
19150;BME280;9707;49.158;8.632;2023-08-06T12:52:10;99704.44;;;25.28;40.58
19150;BME280;9707;49.158;8.632;2023-08-06T12:54:38;99704.44;;;25.28;40.72
19150;BME280;9707;49.158;8.632;2023-08-06T12:57:04;99709.91;;;25.28;40.50
19150;BME280;9707;49.158;8.632;2023-08-06T12:59:29;99707.16;;;25.28;40.11
19150;BME280;9707;49.158;8.632;2023-08-06T13:01:55;99705.44;;;25.27;40.13
19150;BME280;9707;49.158;8.632;2023-08-06T13:04:20;99710.06;;;25.26;40.45
19150;BME280;9707;49.158;8.632;2023-08-06T13:06:46;99712.63;;;25.28;40.57
19150;BME280;9707;49.158;8.632;2023-08-06T13:09:12;99715.34;;;25.28;40.24
19150;BME280;9707;49.158;8.632;2023-08-06T13:11:40;99726.25;;;25.28;40.32